Time;durP1;ratioP1;P1;durP2;ratioP2;P2;SDS_P1;SDS_P2;PMS_P1;PMS_P2;Temp;Humidity;BMP_temperature;BMP_pressure;BME280_temperature;BME280_humidity;BME280_pressure;Samples;Min_cycle;Max_cycle;Signal;HPM_P1;HPM_P2
2023/11/22 00:00:10;;;;;;;11.30;8.03;;;14.10;67.80;;;;;;5036585;28;20967;-53
2023/11/22 00:02:37;;;;;;;4.30;3.90;;;14.00;68.10;;;;;;5037120;28;20570;-50
2023/11/22 00:05:03;;;;;;;4.20;2.80;;;13.70;68.50;;;;;;5039450;28;20854;-52
2023/11/22 00:07:29;;;;;;;3.23;2.80;;;13.40;67.10;;;;;;5036373;28;20950;-48
2023/11/22 00:09:55;;;;;;;2.23;1.90;;;13.30;67.40;;;;;;5035029;28;20521;-49
2023/11/22 00:12:20;;;;;;;2.60;2.00;;;13.20;66.90;;;;;;5039908;28;20648;-50
2023/11/22 00:14:47;;;;;;;2.83;2.63;;;12.90;67.70;;;;;;5037239;28;20440;-51
2023/11/22 00:17:12;;;;;;;2.93;2.60;;;12.90;67.30;;;;;;5033540;28;20185;-52
2023/11/22 00:19:38;;;;;;;2.67;2.47;;;12.40;66.20;;;;;;5049349;28;20570;-48
2023/11/22 00:22:11;;;;;;;3.00;2.47;;;12.20;67.40;;;;;;5033646;28;20191;-46
2023/11/22 00:24:37;;;;;;;2.80;2.60;;;11.90;67.90;;;;;;5043062;28;20189;-50
2023/11/22 00:27:03;;;;;;;3.40;3.10;;;11.90;68.60;;;;;;5032349;28;20444;-49
2023/11/22 00:29:28;;;;;;;3.63;3.33;;;12.10;68.30;;;;;;5035054;28;20216;-50
2023/11/22 00:31:54;;;;;;;3.83;3.07;;;12.20;67.70;;;;;;5036117;28;20217;-49
2023/11/22 00:34:19;;;;;;;4.27;2.97;;;12.20;66.60;;;;;;5039254;28;20558;-51
2023/11/22 00:36:45;;;;;;;3.40;3.10;;;11.90;66.00;;;;;;5037688;28;20312;-52
2023/11/22 00:39:12;;;;;;;3.20;2.90;;;11.60;66.60;;;;;;5044658;28;20216;-49
2023/11/22 00:41:39;;;;;;;3.73;3.37;;;11.50;66.30;;;;;;5041215;28;20185;-50
2023/11/22 00:44:05;;;;;;;3.23;2.93;;;11.50;67.50;;;;;;5040889;28;20457;-47
2023/11/22 00:46:31;;;;;;;3.33;2.40;;;11.60;67.40;;;;;;5036378;28;20477;-49
2023/11/22 00:48:57;;;;;;;3.17;2.90;;;11.70;67.00;;;;;;5039543;28;20459;-50
2023/11/22 00:51:23;;;;;;;3.10;2.90;;;11.80;67.00;;;;;;5040043;28;20463;-45
2023/11/22 00:53:49;;;;;;;3.40;3.10;;;11.90;65.70;;;;;;5042926;28;20220;-49
2023/11/22 00:56:15;;;;;;;3.33;3.00;;;12.00;65.40;;;;;;5033728;28;20580;-51
2023/11/22 00:58:40;;;;;;;3.60;3.30;;;12.10;65.70;;;;;;5041094;28;20476;-48
2023/11/22 01:01:06;;;;;;;3.80;3.50;;;12.20;65.40;;;;;;5032625;28;20649;-48
2023/11/22 01:03:32;;;;;;;3.40;2.90;;;12.20;64.50;;;;;;5039077;28;20182;-48
2023/11/22 01:05:57;;;;;;;4.10;3.60;;;12.10;64.50;;;;;;5031753;28;20185;-47
2023/11/22 01:08:23;;;;;;;4.00;3.47;;;12.30;64.10;;;;;;5040094;28;20212;-49
2023/11/22 01:10:49;;;;;;;3.80;3.50;;;12.30;63.30;;;;;;5031929;28;20227;-47
2023/11/22 01:13:15;;;;;;;3.23;2.97;;;12.40;63.30;;;;;;5038186;28;20254;-50
2023/11/22 01:15:41;;;;;;;3.20;3.00;;;12.30;62.40;;;;;;5041045;28;20263;-47
2023/11/22 01:18:07;;;;;;;4.17;3.77;;;12.00;62.80;;;;;;5036288;28;20216;-51
2023/11/22 01:20:33;;;;;;;4.23;3.83;;;12.10;63.70;;;;;;5044806;28;20449;-47
2023/11/22 01:22:58;;;;;;;3.80;3.50;;;12.10;63.60;;;;;;5042923;28;20182;-50
2023/11/22 01:25:24;;;;;;;3.80;3.50;;;12.10;63.30;;;;;;5037764;28;20652;-47
2023/11/22 01:27:50;;;;;;;4.83;3.77;;;12.10;63.20;;;;;;5046678;28;20973;-48
2023/11/22 01:30:15;;;;;;;3.90;3.60;;;12.10;63.20;;;;;;5037595;28;20209;-49
2023/11/22 01:32:41;;;;;;;3.83;3.50;;;12.20;63.10;;;;;;5035333;28;20326;-50
2023/11/22 01:35:07;;;;;;;4.30;3.90;;;12.10;63.10;;;;;;5033915;28;20565;-51
2023/11/22 01:37:33;;;;;;;3.60;3.30;;;12.00;63.10;;;;;;5032163;28;20196;-50
2023/11/22 01:39:58;;;;;;;3.87;3.40;;;12.00;63.30;;;;;;5031934;28;20486;-48
2023/11/22 01:42:25;;;;;;;4.30;3.90;;;11.90;63.60;;;;;;5023619;28;20198;-48
2023/11/22 01:44:52;;;;;;;4.07;3.67;;;12.00;63.70;;;;;;5017977;28;20330;-48
2023/11/22 01:47:19;;;;;;;3.80;3.13;;;12.00;63.40;;;;;;5031271;28;20443;-49
2023/11/22 01:49:46;;;;;;;4.40;3.77;;;11.90;63.10;;;;;;5033559;28;20466;-50
2023/11/22 01:52:12;;;;;;;5.47;3.57;;;12.10;63.10;;;;;;5032441;28;20436;-47
2023/11/22 01:54:38;;;;;;;4.00;3.43;;;12.20;62.80;;;;;;5034003;28;20446;-48
2023/11/22 01:57:07;;;;;;;3.53;3.23;;;12.30;62.00;;;;;;5035994;28;20440;-47
2023/11/22 01:59:33;;;;;;;3.60;3.30;;;12.20;61.50;;;;;;5034033;28;20474;-48
2023/11/22 02:01:59;;;;;;;3.73;3.23;;;12.00;61.40;;;;;;5036940;28;21159;-51
2023/11/22 02:04:24;;;;;;;3.30;3.00;;;11.70;61.30;;;;;;5035117;28;20218;-50
2023/11/22 02:06:51;;;;;;;4.43;4.03;;;11.50;61.80;;;;;;5034638;28;20189;-49
2023/11/22 02:09:17;;;;;;;3.53;3.23;;;11.30;62.60;;;;;;5041095;28;20686;-47
2023/11/22 02:11:45;;;;;;;4.33;3.23;;;11.40;62.20;;;;;;5034296;28;20435;-48
2023/11/22 02:14:11;;;;;;;3.57;3.27;;;11.40;60.70;;;;;;5046202;28;20834;-49
2023/11/22 02:16:38;;;;;;;3.73;2.80;;;11.30;60.60;;;;;;5037802;28;20453;-46
2023/11/22 02:19:07;;;;;;;3.93;3.53;;;11.40;60.80;;;;;;5034962;28;20494;-48
2023/11/22 02:21:32;;;;;;;3.67;3.37;;;11.50;60.20;;;;;;5034335;28;21085;-48
2023/11/22 02:23:58;;;;;;;7.20;3.93;;;11.30;60.00;;;;;;5042710;28;20527;-47
2023/11/22 02:26:24;;;;;;;3.77;3.20;;;11.40;60.30;;;;;;5043817;28;20830;-47
2023/11/22 02:28:50;;;;;;;4.03;3.63;;;11.40;59.90;;;;;;5041198;28;20213;-48
2023/11/22 02:31:16;;;;;;;3.70;3.40;;;11.50;60.30;;;;;;5035491;28;20481;-47
2023/11/22 02:33:42;;;;;;;3.50;3.20;;;11.50;60.00;;;;;;5035777;28;20896;-48
2023/11/22 02:36:08;;;;;;;3.70;3.23;;;11.30;59.60;;;;;;5036879;28;20713;-48
2023/11/22 02:38:35;;;;;;;4.17;3.77;;;11.40;59.90;;;;;;5035933;28;20321;-48
2023/11/22 02:41:01;;;;;;;4.70;3.10;;;11.50;59.70;;;;;;5043970;28;20435;-49
2023/11/22 02:43:26;;;;;;;3.70;3.30;;;11.50;59.60;;;;;;5035381;28;20431;-45
2023/11/22 02:45:53;;;;;;;4.20;3.80;;;11.50;59.30;;;;;;5042595;28;20435;-48
2023/11/22 02:48:19;;;;;;;3.77;3.37;;;11.40;59.00;;;;;;5039860;28;20176;-47
2023/11/22 02:50:44;;;;;;;3.80;3.40;;;11.20;59.30;;;;;;5045533;28;20438;-46
2023/11/22 02:53:10;;;;;;;3.53;2.60;;;11.20;59.20;;;;;;5034527;28;20177;-46
2023/11/22 02:55:36;;;;;;;3.87;3.47;;;11.30;58.70;;;;;;5039170;28;20822;-49
2023/11/22 02:58:02;;;;;;;3.97;3.57;;;11.30;58.30;;;;;;5040383;28;20189;-48
2023/11/22 03:00:29;;;;;;;3.87;3.47;;;11.40;58.10;;;;;;5037670;28;20197;-48
2023/11/22 03:02:55;;;;;;;3.30;3.00;;;11.30;58.00;;;;;;5037302;28;21374;-47
2023/11/22 03:05:22;;;;;;;5.87;3.80;;;11.30;57.50;;;;;;5038597;28;20440;-46
2023/11/22 03:07:47;;;;;;;3.83;3.43;;;11.20;57.60;;;;;;5039127;28;20431;-48
2023/11/22 03:10:13;;;;;;;4.17;3.80;;;11.30;57.70;;;;;;5034397;28;21013;-47
2023/11/22 03:12:39;;;;;;;3.43;3.13;;;11.30;57.30;;;;;;5037607;28;20193;-47
2023/11/22 03:15:05;;;;;;;3.73;3.37;;;11.20;57.00;;;;;;5040852;28;20195;-47
2023/11/22 03:17:32;;;;;;;4.43;4.03;;;11.30;57.10;;;;;;5045795;28;20235;-48
2023/11/22 03:19:58;;;;;;;4.33;3.73;;;11.30;57.10;;;;;;5043358;28;20557;-49
2023/11/22 03:22:24;;;;;;;4.00;3.60;;;11.30;57.10;;;;;;5036076;28;20482;-46
2023/11/22 03:24:50;;;;;;;3.37;3.00;;;11.30;56.50;;;;;;5038583;28;20196;-49
2023/11/22 03:27:16;;;;;;;3.90;3.10;;;11.10;56.60;;;;;;5035607;28;20785;-46
2023/11/22 03:29:42;;;;;;;4.43;3.50;;;11.00;57.00;;;;;;5041800;28;20697;-49
2023/11/22 03:32:08;;;;;;;3.80;3.40;;;11.10;57.10;;;;;;5042629;28;20494;-50
2023/11/22 03:34:33;;;;;;;6.27;3.47;;;11.20;57.00;;;;;;5042758;28;20197;-47
2023/11/22 03:36:59;;;;;;;5.07;3.30;;;11.20;56.40;;;;;;5037849;28;20906;-49
2023/11/22 03:39:24;;;;;;;4.33;3.43;;;11.20;56.50;;;;;;5037674;28;20244;-48
2023/11/22 03:41:50;;;;;;;3.37;3.07;;;11.20;56.10;;;;;;5039805;28;20199;-46
2023/11/22 03:44:16;;;;;;;4.20;3.77;;;11.20;56.20;;;;;;5047400;28;20210;-49
2023/11/22 03:46:42;;;;;;;3.67;3.17;;;11.20;56.00;;;;;;5041575;28;20192;-48
2023/11/22 03:49:08;;;;;;;4.60;3.60;;;11.20;56.00;;;;;;5035873;28;20458;-45
2023/11/22 03:51:35;;;;;;;5.50;4.20;;;11.20;56.40;;;;;;5040103;28;20196;-47
2023/11/22 03:54:02;;;;;;;4.00;3.60;;;11.10;56.30;;;;;;5033457;28;20526;-48
2023/11/22 03:56:28;;;;;;;4.10;3.53;;;11.20;56.30;;;;;;5037413;28;21132;-45
2023/11/22 03:58:54;;;;;;;4.83;3.60;;;11.10;56.20;;;;;;5041084;28;20483;-49
2023/11/22 04:01:20;;;;;;;3.37;2.93;;;11.00;55.80;;;;;;5039599;28;20447;-47
2023/11/22 04:03:48;;;;;;;5.13;4.40;;;10.90;56.40;;;;;;5039983;28;20432;-45
2023/11/22 04:06:15;;;;;;;5.03;3.90;;;10.90;55.90;;;;;;5040126;28;20232;-47
2023/11/22 04:08:43;;;;;;;3.70;3.20;;;11.00;56.00;;;;;;5037606;28;20509;-49
2023/11/22 04:11:09;;;;;;;4.40;3.30;;;10.90;55.80;;;;;;5030323;28;21390;-47
2023/11/22 04:13:35;;;;;;;4.43;4.03;;;10.90;55.70;;;;;;5036245;28;20467;-49
2023/11/22 04:16:01;;;;;;;3.50;3.20;;;11.00;55.50;;;;;;5036165;28;20475;-48
2023/11/22 04:18:27;;;;;;;5.37;4.00;;;10.70;55.50;;;;;;5036791;28;20319;-49
2023/11/22 04:20:52;;;;;;;4.00;3.70;;;10.70;56.00;;;;;;5034558;28;20192;-47
2023/11/22 04:23:18;;;;;;;4.67;3.93;;;10.80;56.00;;;;;;5035069;28;20328;-50
2023/11/22 04:25:44;;;;;;;5.93;4.40;;;10.90;56.00;;;;;;5039078;28;20221;-50
2023/11/22 04:28:09;;;;;;;4.50;4.10;;;10.90;55.50;;;;;;5034558;28;20286;-46
2023/11/22 04:30:35;;;;;;;3.83;3.53;;;10.90;55.30;;;;;;5041959;28;20192;-46
2023/11/22 04:33:01;;;;;;;5.20;3.97;;;10.80;55.00;;;;;;5034956;28;20845;-48
2023/11/22 04:35:27;;;;;;;5.63;4.30;;;10.90;55.50;;;;;;5037564;28;20242;-49
2023/11/22 04:37:55;;;;;;;5.60;4.80;;;10.90;55.30;;;;;;5032050;28;20542;-47
2023/11/22 04:40:20;;;;;;;4.90;3.83;;;10.70;54.90;;;;;;5034552;28;20215;-43
2023/11/22 04:42:47;;;;;;;4.60;4.20;;;10.70;55.00;;;;;;5028437;28;20431;-49
2023/11/22 04:45:12;;;;;;;5.00;4.10;;;10.80;54.90;;;;;;5039478;28;20260;-48
2023/11/22 04:47:38;;;;;;;5.00;4.23;;;10.90;54.60;;;;;;5037559;28;21072;-45
2023/11/22 04:50:04;;;;;;;3.63;3.33;;;10.90;54.40;;;;;;5038011;28;20209;-50
2023/11/22 04:52:30;;;;;;;4.20;3.80;;;10.90;54.20;;;;;;5039013;28;20196;-48
2023/11/22 04:54:56;;;;;;;3.53;3.20;;;10.90;54.40;;;;;;5034910;28;20494;-50
2023/11/22 04:57:21;;;;;;;4.60;4.20;;;10.90;54.30;;;;;;5035127;28;20728;-48
2023/11/22 04:59:47;;;;;;;4.77;4.37;;;10.90;54.30;;;;;;5035022;28;20594;-50
2023/11/22 05:02:13;;;;;;;5.90;3.93;;;10.90;54.50;;;;;;5033060;28;20177;-48
2023/11/22 05:04:38;;;;;;;4.90;4.50;;;10.90;54.50;;;;;;5042883;28;20185;-49
2023/11/22 05:07:04;;;;;;;4.67;3.47;;;10.90;54.30;;;;;;5038206;28;20185;-48
2023/11/22 05:09:29;;;;;;;5.10;4.23;;;10.90;54.60;;;;;;5043980;28;20236;-49
2023/11/22 05:11:55;;;;;;;7.17;3.87;;;10.90;54.60;;;;;;5039573;28;20264;-47
2023/11/22 05:14:20;;;;;;;5.20;3.87;;;10.90;54.50;;;;;;5040500;28;20208;-47
2023/11/22 05:16:46;;;;;;;4.00;3.70;;;10.90;54.40;;;;;;5044721;28;20215;-49
2023/11/22 05:19:12;;;;;;;4.43;4.03;;;10.80;54.20;;;;;;5037687;28;20567;-48
2023/11/22 05:21:37;;;;;;;5.53;3.87;;;10.70;54.30;;;;;;5041496;28;20633;-49
2023/11/22 05:24:03;;;;;;;3.70;3.40;;;10.70;54.60;;;;;;5036891;28;20196;-46
2023/11/22 05:26:29;;;;;;;4.13;3.60;;;10.80;54.80;;;;;;5032731;28;20184;-49
2023/11/22 05:28:54;;;;;;;4.97;4.13;;;10.80;54.90;;;;;;5033232;28;20447;-48
2023/11/22 05:31:21;;;;;;;4.10;3.70;;;10.80;54.70;;;;;;5039000;28;20818;-48
2023/11/22 05:33:46;;;;;;;3.67;2.87;;;10.80;54.70;;;;;;5034299;28;20181;-48
2023/11/22 05:36:12;;;;;;;5.03;4.03;;;10.80;54.70;;;;;;5037130;28;20437;-49
2023/11/22 05:38:38;;;;;;;4.03;3.63;;;10.80;54.80;;;;;;5040827;28;20225;-47
2023/11/22 05:41:03;;;;;;;6.00;3.87;;;10.80;54.80;;;;;;5034467;28;20186;-47
2023/11/22 05:43:29;;;;;;;5.07;3.70;;;10.80;54.70;;;;;;5040537;28;20279;-47
2023/11/22 05:45:55;;;;;;;5.17;3.83;;;10.80;54.70;;;;;;5048126;28;20194;-49
2023/11/22 05:48:21;;;;;;;4.40;3.80;;;10.80;54.50;;;;;;5045189;28;20176;-48
2023/11/22 05:50:47;;;;;;;5.13;4.17;;;10.90;54.50;;;;;;5029491;28;20661;-49
2023/11/22 05:53:19;;;;;;;3.97;3.67;;;10.80;54.30;;;;;;5041474;28;20442;-48
2023/11/22 05:55:48;;;;;;;4.07;3.63;;;10.80;54.40;;;;;;5037441;28;20828;-48
2023/11/22 05:58:17;;;;;;;4.37;3.70;;;10.90;54.70;;;;;;5033835;28;20889;-50
2023/11/22 06:00:46;;;;;;;4.77;4.33;;;10.90;54.80;;;;;;5036519;28;20439;-49
2023/11/22 06:03:12;;;;;;;5.20;4.07;;;10.90;54.90;;;;;;5038586;28;20436;-47
2023/11/22 06:05:38;;;;;;;5.70;4.50;;;10.80;54.90;;;;;;5036787;28;20438;-48
2023/11/22 06:08:04;;;;;;;5.37;4.47;;;10.80;54.90;;;;;;5037214;28;20442;-47
2023/11/22 06:10:30;;;;;;;4.40;3.90;;;10.80;54.90;;;;;;5036149;28;20450;-49
2023/11/22 06:12:56;;;;;;;5.10;4.20;;;10.80;55.10;;;;;;5035540;28;20271;-47
2023/11/22 06:15:22;;;;;;;4.70;4.30;;;10.80;55.10;;;;;;5042022;28;20191;-49
2023/11/22 06:17:51;;;;;;;5.00;4.40;;;10.80;55.10;;;;;;5035230;28;20477;-49
2023/11/22 06:20:16;;;;;;;5.77;3.67;;;10.90;55.20;;;;;;5039298;28;20474;-46
2023/11/22 06:22:42;;;;;;;10.00;4.27;;;10.80;55.20;;;;;;5037248;28;20435;-48
2023/11/22 06:25:12;;;;;;;4.20;3.80;;;11.00;55.60;;;;;;5033977;28;20185;-48
2023/11/22 06:27:38;;;;;;;4.57;3.60;;;11.10;56.70;;;;;;5036293;28;20185;-46
2023/11/22 06:30:06;;;;;;;5.60;4.77;;;11.30;55.80;;;;;;5037199;28;20453;-48
2023/11/22 06:32:31;;;;;;;4.77;4.27;;;11.40;55.30;;;;;;5032026;28;20435;-48
2023/11/22 06:34:57;;;;;;;4.67;4.27;;;11.50;54.90;;;;;;5028647;28;21306;-50
2023/11/22 06:37:22;;;;;;;4.47;3.73;;;11.60;54.70;;;;;;5032277;28;20544;-51
2023/11/22 06:39:48;;;;;;;6.33;4.40;;;11.70;54.90;;;;;;5032215;28;20327;-47
2023/11/22 06:42:13;;;;;;;4.80;4.30;;;11.90;54.20;;;;;;5035623;28;20199;-47
2023/11/22 06:44:42;;;;;;;4.93;4.47;;;11.90;53.60;;;;;;5035974;28;20240;-48
2023/11/22 06:47:08;;;;;;;5.23;4.30;;;11.90;53.70;;;;;;5036087;28;20556;-47
2023/11/22 06:49:33;;;;;;;4.33;3.93;;;12.10;53.50;;;;;;5031421;28;20459;-46
2023/11/22 06:51:59;;;;;;;4.20;3.80;;;12.10;53.40;;;;;;5030727;28;20188;-50
2023/11/22 06:54:25;;;;;;;4.03;3.63;;;12.20;53.30;;;;;;5033690;28;20182;-50
2023/11/22 06:56:51;;;;;;;4.40;3.90;;;12.30;52.90;;;;;;5029704;28;20231;-49
2023/11/22 06:59:17;;;;;;;4.20;3.80;;;12.20;52.70;;;;;;5031306;28;20291;-47
2023/11/22 07:01:43;;;;;;;3.80;3.40;;;12.20;53.10;;;;;;5036013;28;20620;-51
2023/11/22 07:04:08;;;;;;;3.60;3.30;;;12.20;53.20;;;;;;5035179;28;20543;-48
2023/11/22 07:06:36;;;;;;;4.20;3.80;;;12.20;53.30;;;;;;5037607;28;20599;-48
2023/11/22 07:09:01;;;;;;;3.37;3.07;;;12.20;53.50;;;;;;5029890;28;20205;-50
2023/11/22 07:11:30;;;;;;;3.10;2.90;;;12.00;53.10;;;;;;5030994;28;20465;-48
2023/11/22 07:13:57;;;;;;;3.10;2.80;;;11.90;53.10;;;;;;5039384;28;20193;-48
2023/11/22 07:16:24;;;;;;;3.30;3.00;;;11.90;53.50;;;;;;5035486;28;20506;-46
2023/11/22 07:18:50;;;;;;;4.13;3.40;;;11.80;53.20;;;;;;5039540;28;20475;-46
2023/11/22 07:21:16;;;;;;;3.27;2.80;;;11.90;53.50;;;;;;5037479;28;20988;-49
2023/11/22 07:23:42;;;;;;;3.17;2.70;;;11.80;52.60;;;;;;5040368;28;20188;-48
2023/11/22 07:26:08;;;;;;;3.00;2.80;;;11.80;52.60;;;;;;5036829;28;20450;-46
2023/11/22 07:28:35;;;;;;;2.57;2.37;;;11.80;52.60;;;;;;5034299;28;20267;-48
2023/11/22 07:31:02;;;;;;;3.93;2.97;;;11.70;52.50;;;;;;5036271;28;20263;-49
2023/11/22 07:33:27;;;;;;;3.63;2.87;;;11.60;52.40;;;;;;5032312;28;20456;-49
2023/11/22 07:35:53;;;;;;;3.43;3.10;;;11.30;52.20;;;;;;5034616;28;20447;-51
2023/11/22 07:38:19;;;;;;;4.10;2.80;;;11.20;53.10;;;;;;5042734;28;20220;-48
2023/11/22 07:40:45;;;;;;;3.40;3.10;;;11.20;53.30;;;;;;5040650;28;22067;-49
2023/11/22 07:43:10;;;;;;;3.30;2.70;;;11.20;53.60;;;;;;5041858;28;20447;-46
2023/11/22 07:45:37;;;;;;;3.50;3.20;;;11.20;52.80;;;;;;5040953;28;20180;-48
2023/11/22 07:48:04;;;;;;;3.20;2.90;;;10.80;53.40;;;;;;5045249;28;20200;-48
2023/11/22 07:50:29;;;;;;;3.77;3.30;;;10.50;53.40;;;;;;5040428;28;20857;-44
2023/11/22 07:52:56;;;;;;;6.33;3.40;;;10.10;54.00;;;;;;5033715;28;20431;-50
2023/11/22 07:55:22;;;;;;;3.70;3.30;;;10.20;54.80;;;;;;5043113;28;20192;-48
2023/11/22 07:57:50;;;;;;;3.10;2.80;;;10.20;54.70;;;;;;5046264;28;20422;-48
2023/11/22 08:00:19;;;;;;;4.90;3.23;;;10.40;54.70;;;;;;5047500;28;20482;-46
2023/11/22 08:02:45;;;;;;;3.90;3.50;;;10.10;54.10;;;;;;5043892;28;20447;-49
2023/11/22 08:05:12;;;;;;;4.20;3.30;;;10.00;54.90;;;;;;5046892;28;21056;-46
2023/11/22 08:07:40;;;;;;;4.40;3.80;;;9.90;55.70;;;;;;5045421;28;20431;-49
2023/11/22 08:10:17;;;;;;;9.50;3.60;;;9.80;56.10;;;;;;5050552;28;20442;-47
2023/11/22 08:12:44;;;;;;;4.43;4.00;;;10.00;55.50;;;;;;5045991;28;20518;-48
2023/11/22 08:15:12;;;;;;;4.37;3.97;;;10.30;54.80;;;;;;5043676;28;20439;-47
2023/11/22 08:17:39;;;;;;;5.33;4.23;;;10.50;54.60;;;;;;5044882;28;20596;-47
2023/11/22 08:20:05;;;;;;;3.83;3.23;;;10.60;54.10;;;;;;5050295;28;20477;-46
2023/11/22 08:22:35;;;;;;;11.00;3.67;;;10.70;53.80;;;;;;5036095;28;20818;-46
2023/11/22 08:25:03;;;;;;;4.17;3.50;;;10.80;53.90;;;;;;5036136;28;20950;-46
2023/11/22 08:27:28;;;;;;;4.40;3.63;;;11.00;53.80;;;;;;5040703;28;20439;-48
2023/11/22 08:29:54;;;;;;;5.07;3.73;;;11.10;53.10;;;;;;5035336;28;20496;-47
2023/11/22 08:32:23;;;;;;;5.20;4.10;;;11.20;52.90;;;;;;5036034;28;20589;-49
2023/11/22 08:34:49;;;;;;;3.73;3.33;;;11.20;52.70;;;;;;5034651;28;20209;-48
2023/11/22 08:37:15;;;;;;;6.47;3.50;;;11.40;52.70;;;;;;5039197;28;20425;-47
2023/11/22 08:39:41;;;;;;;6.80;4.30;;;11.20;51.70;;;;;;5035888;28;20497;-49
2023/11/22 08:42:09;;;;;;;4.50;3.60;;;11.20;52.00;;;;;;5037396;28;20181;-49
2023/11/22 08:44:36;;;;;;;8.57;3.10;;;11.10;51.60;;;;;;5044589;28;20727;-46
2023/11/22 08:47:03;;;;;;;7.83;4.00;;;11.00;52.10;;;;;;5045927;28;20427;-47
2023/11/22 08:49:28;;;;;;;4.40;3.90;;;11.00;52.10;;;;;;5046555;28;20861;-47
2023/11/22 08:51:54;;;;;;;4.63;4.07;;;10.90;52.10;;;;;;5046775;28;20434;-47
2023/11/22 08:54:20;;;;;;;6.10;4.17;;;11.00;51.90;;;;;;5041698;28;20676;-46
2023/11/22 08:56:46;;;;;;;5.60;3.93;;;10.90;52.40;;;;;;5039347;28;20193;-45
2023/11/22 08:59:12;;;;;;;4.77;3.43;;;10.90;52.10;;;;;;5043373;28;20593;-46
2023/11/22 09:01:38;;;;;;;6.30;3.40;;;11.00;52.30;;;;;;5040010;28;20435;-49
2023/11/22 09:04:04;;;;;;;5.50;3.60;;;11.10;52.60;;;;;;5045850;28;20189;-50
2023/11/22 09:06:30;;;;;;;11.07;4.23;;;11.10;52.70;;;;;;5048326;28;20199;-46
2023/11/22 09:08:56;;;;;;;6.93;4.87;;;11.00;52.80;;;;;;5032596;28;20669;-48
2023/11/22 09:11:22;;;;;;;4.30;3.90;;;11.00;52.30;;;;;;5047472;28;20431;-46
2023/11/22 09:13:50;;;;;;;4.07;3.47;;;10.90;52.50;;;;;;5041888;28;20428;-47
2023/11/22 09:16:16;;;;;;;5.53;3.90;;;10.80;52.70;;;;;;5035392;28;20211;-46
2023/11/22 09:18:42;;;;;;;5.10;4.00;;;10.80;52.50;;;;;;5038521;28;20478;-49
2023/11/22 09:21:09;;;;;;;4.83;3.93;;;10.70;52.70;;;;;;5033801;28;20443;-46
2023/11/22 09:23:36;;;;;;;6.33;4.00;;;10.70;53.00;;;;;;5035090;28;20435;-48
2023/11/22 09:26:02;;;;;;;4.40;3.90;;;10.70;53.20;;;;;;5030990;28;20830;-47
2023/11/22 09:28:28;;;;;;;5.20;4.10;;;10.80;53.30;;;;;;5035361;28;20521;-49
2023/11/22 09:31:01;;;;;;;4.63;3.60;;;11.00;53.50;;;;;;5033268;28;20788;-45
2023/11/22 09:33:26;;;;;;;7.33;3.80;;;11.10;53.20;;;;;;5035966;28;20196;-48
2023/11/22 09:35:52;;;;;;;6.67;4.80;;;11.20;53.00;;;;;;5031391;28;20479;-46
2023/11/22 09:38:18;;;;;;;5.53;3.93;;;11.20;52.40;;;;;;5032503;28;20610;-49
2023/11/22 09:40:48;;;;;;;7.13;5.47;;;11.20;52.60;;;;;;5035893;28;20193;-49
2023/11/22 09:43:20;;;;;;;4.40;4.00;;;11.20;53.00;;;;;;5035448;28;20598;-48
2023/11/22 09:45:48;;;;;;;4.63;4.13;;;11.30;53.00;;;;;;5034815;28;21871;-49
2023/11/22 09:48:19;;;;;;;4.20;3.57;;;11.20;53.00;;;;;;5028075;28;20443;-47
2023/11/22 09:51:22;;;;;;;4.23;3.83;;;11.00;52.30;;;;;;5043426;28;20451;-47
2023/11/22 09:53:59;;;;;;;5.10;4.60;;;11.00;53.70;;;;;;5027129;28;20558;-52
2023/11/22 09:56:26;;;;;;;5.80;4.20;;;11.00;54.00;;;;;;5035017;28;20447;-50
2023/11/22 09:58:56;;;;;;;5.30;4.27;;;11.10;53.60;;;;;;5028638;28;20602;-45
2023/11/22 10:01:24;;;;;;;6.00;4.37;;;11.00;53.20;;;;;;5032703;28;20443;-50
2023/11/22 10:03:50;;;;;;;6.60;4.23;;;11.00;53.50;;;;;;5037826;28;20438;-51
2023/11/22 10:06:17;;;;;;;4.87;4.03;;;10.60;53.90;;;;;;5035995;28;21016;-49
2023/11/22 10:08:43;;;;;;;4.87;3.80;;;10.70;54.10;;;;;;5038033;28;20212;-47
2023/11/22 10:11:09;;;;;;;3.97;3.47;;;10.80;53.80;;;;;;5036550;28;20463;-48
2023/11/22 10:13:34;;;;;;;6.93;4.20;;;10.60;53.10;;;;;;5031582;28;20473;-52
2023/11/22 10:16:11;;;;;;;6.43;4.67;;;10.60;53.60;;;;;;5030874;28;20736;-48
2023/11/22 10:18:42;;;;;;;6.07;4.03;;;10.30;53.20;;;;;;5030551;28;20315;-48
2023/11/22 10:21:21;;;;;;;4.83;4.00;;;10.10;53.60;;;;;;5032663;28;20938;-51
2023/11/22 10:23:51;;;;;;;5.20;4.43;;;10.10;54.80;;;;;;5034542;28;20959;-50
2023/11/22 10:26:17;;;;;;;6.03;5.00;;;10.20;54.50;;;;;;5030561;28;20454;-49
2023/11/22 10:28:45;;;;;;;7.20;4.60;;;10.40;54.00;;;;;;5031405;28;20982;-50
2023/11/22 10:31:11;;;;;;;6.50;5.50;;;10.50;53.90;;;;;;5034978;28;20562;-46
2023/11/22 10:33:43;;;;;;;5.40;4.20;;;10.20;53.90;;;;;;5032807;28;20442;-48
2023/11/22 10:36:10;;;;;;;4.83;4.10;;;10.30;54.00;;;;;;5033432;28;20185;-49
2023/11/22 10:38:35;;;;;;;4.33;3.93;;;10.10;53.90;;;;;;5032660;28;21016;-51
2023/11/22 10:41:05;;;;;;;7.67;5.20;;;9.80;54.90;;;;;;5036200;28;20443;-50
2023/11/22 10:43:34;;;;;;;5.23;4.37;;;9.60;54.90;;;;;;5038654;28;20524;-47
2023/11/22 10:46:02;;;;;;;5.10;4.60;;;9.70;55.50;;;;;;5040806;28;20466;-53
2023/11/22 10:48:29;;;;;;;5.60;4.90;;;9.70;55.30;;;;;;5043707;28;20469;-48
2023/11/22 10:50:57;;;;;;;5.80;5.20;;;9.70;55.70;;;;;;5040318;28;20439;-45
2023/11/22 10:53:32;;;;;;;5.23;4.73;;;9.80;55.80;;;;;;5046277;28;20505;-48
2023/11/22 10:56:15;;;;;;;5.83;4.07;;;9.80;55.30;;;;;;5032219;28;20825;-48
2023/11/22 10:58:47;;;;;;;8.73;5.00;;;9.90;55.60;;;;;;5039854;28;20537;-48
2023/11/22 11:01:19;;;;;;;5.40;4.90;;;10.10;55.00;;;;;;5051061;28;20522;-47
2023/11/22 11:04:10;;;;;;;5.90;4.60;;;9.90;55.60;;;;;;5048892;28;20454;-49
2023/11/22 11:06:36;;;;;;;5.03;4.53;;;9.90;55.60;;;;;;5038814;28;20435;-49
2023/11/22 11:09:08;;;;;;;5.20;4.70;;;10.00;54.50;;;;;;5040390;28;20480;-47
2023/11/22 11:11:35;;;;;;;5.50;5.00;;;9.90;55.10;;;;;;5037582;28;20448;-51
2023/11/22 11:14:03;;;;;;;13.93;7.80;;;10.00;53.90;;;;;;5043945;28;20439;-49
2023/11/22 11:16:31;;;;;;;7.70;6.00;;;10.10;53.50;;;;;;5041536;28;20435;-48
2023/11/22 11:18:57;;;;;;;7.17;5.47;;;10.20;53.60;;;;;;5047813;28;21079;-49
2023/11/22 11:21:25;;;;;;;7.40;5.77;;;10.00;53.30;;;;;;5036851;28;20447;-47
2023/11/22 11:23:54;;;;;;;7.27;6.27;;;10.00;53.60;;;;;;5036327;28;20446;-48
2023/11/22 11:26:21;;;;;;;6.33;5.30;;;10.10;53.80;;;;;;5037071;28;20857;-46
2023/11/22 11:28:48;;;;;;;6.80;6.13;;;10.00;53.70;;;;;;5040543;28;21259;-49
2023/11/22 11:31:14;;;;;;;7.00;5.37;;;10.00;53.20;;;;;;5040403;28;20436;-52
2023/11/22 11:33:53;;;;;;;8.73;5.13;;;10.00;52.90;;;;;;5038690;28;20435;-49
2023/11/22 11:36:27;;;;;;;5.40;4.90;;;10.10;53.00;;;;;;5036167;28;20656;-50
2023/11/22 11:38:54;;;;;;;5.27;4.30;;;10.20;52.80;;;;;;5038670;28;20493;-49
2023/11/22 11:41:28;;;;;;;7.43;5.00;;;10.20;53.10;;;;;;5044794;28;20451;-49
2023/11/22 11:43:55;;;;;;;5.97;4.67;;;10.20;53.30;;;;;;5042801;28;20447;-49
2023/11/22 11:46:25;;;;;;;5.73;5.03;;;10.30;52.50;;;;;;5044900;28;20882;-50
2023/11/22 11:48:52;;;;;;;5.87;4.60;;;10.30;52.80;;;;;;5046795;28;20457;-48
2023/11/22 11:51:20;;;;;;;5.00;4.60;;;10.30;52.80;;;;;;5039339;28;21025;-50
2023/11/22 11:53:46;;;;;;;4.47;3.90;;;10.20;52.20;;;;;;5037797;28;20945;-48
2023/11/22 11:56:12;;;;;;;5.23;4.17;;;10.10;52.60;;;;;;5034913;28;21010;-47
2023/11/22 11:58:38;;;;;;;5.63;5.00;;;10.10;52.80;;;;;;5034311;28;20474;-47
2023/11/22 12:01:07;;;;;;;4.93;4.40;;;10.00;53.30;;;;;;5043365;28;20435;-48
2023/11/22 12:03:33;;;;;;;5.73;5.13;;;10.00;53.30;;;;;;5040288;28;20466;-48
2023/11/22 12:05:59;;;;;;;4.97;4.47;;;10.00;53.30;;;;;;5035135;28;20446;-50
2023/11/22 12:08:29;;;;;;;5.90;4.83;;;10.10;53.10;;;;;;5034740;28;20488;-46
2023/11/22 12:10:58;;;;;;;6.07;5.47;;;10.30;53.00;;;;;;5031892;28;20447;-49
2023/11/22 12:13:24;;;;;;;4.93;4.43;;;10.30;53.20;;;;;;5036304;28;20450;-47
2023/11/22 12:15:53;;;;;;;5.90;5.30;;;10.40;53.20;;;;;;5036337;28;20455;-47
2023/11/22 12:18:19;;;;;;;5.87;5.27;;;10.60;53.30;;;;;;5038077;28;20185;-50
2023/11/22 12:20:57;;;;;;;5.07;4.57;;;10.60;52.80;;;;;;5036999;28;20535;-48
2023/11/22 12:23:24;;;;;;;7.00;5.03;;;10.70;52.40;;;;;;5037003;28;20470;-52
2023/11/22 12:25:55;;;;;;;6.20;4.90;;;10.60;52.10;;;;;;5039088;28;20935;-46
2023/11/22 12:28:32;;;;;;;6.73;4.20;;;10.50;52.10;;;;;;5033419;28;21028;-50
2023/11/22 12:31:14;;;;;;;5.17;4.53;;;10.50;51.70;;;;;;5037837;28;20451;-46
2023/11/22 12:33:41;;;;;;;7.73;4.67;;;10.40;51.40;;;;;;5034457;28;20482;-45
2023/11/22 12:36:09;;;;;;;4.47;3.97;;;10.50;52.30;;;;;;5040995;28;20474;-50
2023/11/22 12:38:35;;;;;;;4.80;4.40;;;10.60;51.30;;;;;;5041995;28;20480;-48
2023/11/22 12:41:03;;;;;;;4.30;3.80;;;10.60;50.70;;;;;;5049530;28;20956;-48
2023/11/22 12:43:30;;;;;;;4.83;4.30;;;10.40;50.50;;;;;;5045360;28;20504;-47
2023/11/22 12:46:04;;;;;;;4.57;3.87;;;10.20;50.30;;;;;;5044865;28;20450;-50